createdAt,value
2023-02-25T00:00:00.000Z,3.48
2023-02-25T00:15:00.000Z,3.54
2023-02-25T00:30:00.000Z,3.66
2023-02-25T00:45:00.000Z,3.18
2023-02-25T01:00:00.000Z,2.6
2023-02-25T01:15:00.000Z,1.92
2023-02-25T01:30:00.000Z,1.75
2023-02-25T01:45:00.000Z,1.27
2023-02-25T02:00:00.000Z,1.21
2023-02-25T02:15:00.000Z,1.07
2023-02-25T02:30:00.000Z,1.09
2023-02-25T02:45:00.000Z,1.16
2023-02-25T03:00:00.000Z,1.12
2023-02-25T03:15:00.000Z,1.06
2023-02-25T03:30:00.000Z,1.04
2023-02-25T03:45:00.000Z,1.33
2023-02-25T04:00:00.000Z,3.19
2023-02-25T04:15:00.000Z,1.46
2023-02-25T04:30:00.000Z,6.16
2023-02-25T04:45:00.000Z,5.27
2023-02-25T05:00:00.000Z,9.84
2023-02-25T05:15:00.000Z,1.69
2023-02-25T05:30:00.000Z,1.33
2023-02-25T05:45:00.000Z,7.48
2023-02-25T06:00:00.000Z,2.18
2023-02-25T06:15:00.000Z,1.78
2023-02-25T06:30:00.000Z,1.52
2023-02-25T06:45:00.000Z,1.39
2023-02-25T07:00:00.000Z,4.62
2023-02-25T07:15:00.000Z,4.19
2023-02-25T07:30:00.000Z,3.32
2023-02-25T07:45:00.000Z,3.54
2023-02-25T08:00:00.000Z,3.54
2023-02-25T08:15:00.000Z,3.61
2023-02-25T08:30:00.000Z,7.32
2023-02-25T08:45:00.000Z,6.76
2023-02-25T09:00:00.000Z,7.06
2023-02-25T09:15:00.000Z,8.82
2023-02-25T09:30:00.000Z,9.79
2023-02-25T09:45:00.000Z,4.85
2023-02-25T10:00:00.000Z,4.64
2023-02-25T10:15:00.000Z,5.73
2023-02-25T10:30:00.000Z,4.81
2023-02-25T10:45:00.000Z,5
2023-02-25T11:00:00.000Z,8.93
2023-02-25T11:15:00.000Z,8.89
2023-02-25T11:30:00.000Z,7.78
2023-02-25T11:45:00.000Z,8.48
2023-02-25T12:00:00.000Z,5.81
2023-02-25T12:15:00.000Z,9
2023-02-25T12:30:00.000Z,9.56
2023-02-25T12:45:00.000Z,16.52
2023-02-25T13:00:00.000Z,17.24
2023-02-25T13:15:00.000Z,5.49
2023-02-25T13:30:00.000Z,6.27
2023-02-25T13:45:00.000Z,5.87
2023-02-25T14:00:00.000Z,3.93
2023-02-25T14:15:00.000Z,4.38
2023-02-25T14:30:00.000Z,13.22
2023-02-25T14:45:00.000Z,23.21
2023-02-25T15:00:00.000Z,25.42
2023-02-25T15:15:00.000Z,6.02
2023-02-25T15:30:00.000Z,16.56
2023-02-25T15:45:00.000Z,25.52
2023-02-25T16:00:00.000Z,18.62
2023-02-25T16:15:00.000Z,16.13
2023-02-25T16:30:00.000Z,16.49
2023-02-25T16:45:00.000Z,7.28
2023-02-25T17:00:00.000Z,10.15
2023-02-25T17:15:00.000Z,6.19
2023-02-25T17:30:00.000Z,4.72
2023-02-25T17:45:00.000Z,5.35
2023-02-25T18:00:00.000Z,4.72
2023-02-25T18:15:00.000Z,4.4
2023-02-25T18:30:00.000Z,4.44
2023-02-25T18:45:00.000Z,8.68
2023-02-25T19:00:00.000Z,6.27
2023-02-25T19:15:00.000Z,3.36
2023-02-25T19:30:00.000Z,5.24
2023-02-25T19:45:00.000Z,6.42
2023-02-25T20:00:00.000Z,5.59
2023-02-25T20:15:00.000Z,3.87
2023-02-25T20:30:00.000Z,4.94
2023-02-25T20:45:00.000Z,2.09
2023-02-25T21:00:00.000Z,4.25
2023-02-25T21:15:00.000Z,4.81
2023-02-25T21:30:00.000Z,8.39
2023-02-25T21:45:00.000Z,5.44
2023-02-25T22:00:00.000Z,3.31
2023-02-25T22:15:00.000Z,3.33
2023-02-25T22:30:00.000Z,3.06
2023-02-25T22:45:00.000Z,2.42
2023-02-25T23:00:00.000Z,4.4
2023-02-25T23:15:00.000Z,4.51
2023-02-25T23:30:00.000Z,3.62
2023-02-25T23:45:00.000Z,3.99
